DAL8884 KDAL-KHPN
Flight info
| Callsign | DAL8884 |
|---|---|
| Flight time | N/A |
| Altitude | 35000 |
| Route | LNDRE5 LOOSE Q34 WAKOL BNA HVQ HAR IGN VALRE VALRE1 |
| Aircraft | A321/M-SDE3FGHIRWY/LB1 |
Departure
| Time | 2026-04-29 22:27 |
|---|---|
| Airport | Dallas Love Field (KDAL) |
Arrival
| Time | N/A |
|---|---|
| Airport | Westchester County Airport (KHPN) |
| Time | Latitude | Longitude | Altitude | Speed | Heading |
|---|---|---|---|---|---|
| 2026-04-29 21:58 | 32.85203 | -96.84784 | 484 ft | 0 kts | 272° |
| 2026-04-29 22:15 | 32.85203 | -96.84783 | 484 ft | 1 kts | 272° |
| 2026-04-29 22:15 | 32.85202 | -96.84753 | 482 ft | 4 kts | 272° |
| 2026-04-29 22:15 | 32.85201 | -96.84721 | 478 ft | 4 kts | 272° |
| 2026-04-29 22:15 | 32.85200 | -96.84706 | 478 ft | 0 kts | 272° |
| 2026-04-29 22:20 | 32.85193 | -96.84710 | 477 ft | 1 kts | 201° |
| 2026-04-29 22:20 | 32.85168 | -96.84716 | 480 ft | 8 kts | 180° |
| 2026-04-29 22:20 | 32.85126 | -96.84687 | 480 ft | 6 kts | 135° |
| 2026-04-29 22:20 | 32.85094 | -96.84664 | 477 ft | 5 kts | 171° |
| 2026-04-29 22:21 | 32.85072 | -96.84672 | 484 ft | 3 kts | 202° |
| 2026-04-29 22:21 | 32.85060 | -96.84677 | 481 ft | 1 kts | 202° |
| 2026-04-29 22:21 | 32.85037 | -96.84680 | 477 ft | 7 kts | 174° |
| 2026-04-29 22:21 | 32.84995 | -96.84649 | 482 ft | 6 kts | 137° |
| 2026-04-29 22:22 | 32.84952 | -96.84600 | 478 ft | 12 kts | 135° |
| 2026-04-29 22:22 | 32.84894 | -96.84533 | 481 ft | 11 kts | 135° |
| 2026-04-29 22:22 | 32.84843 | -96.84473 | 482 ft | 10 kts | 136° |
| 2026-04-29 22:22 | 32.84799 | -96.84421 | 484 ft | 8 kts | 135° |
| 2026-04-29 22:23 | 32.84752 | -96.84367 | 484 ft | 14 kts | 136° |
| 2026-04-29 22:23 | 32.84678 | -96.84282 | 485 ft | 14 kts | 136° |
| 2026-04-29 22:23 | 32.84607 | -96.84200 | 482 ft | 15 kts | 136° |
| 2026-04-29 22:23 | 32.84534 | -96.84117 | 485 ft | 14 kts | 136° |
| 2026-04-29 22:24 | 32.84468 | -96.84040 | 481 ft | 13 kts | 135° |
| 2026-04-29 22:24 | 32.84401 | -96.83961 | 485 ft | 14 kts | 135° |
| 2026-04-29 22:24 | 32.84335 | -96.83885 | 482 ft | 11 kts | 136° |
| 2026-04-29 22:24 | 32.84286 | -96.83858 | 479 ft | 6 kts | 179° |
| 2026-04-29 22:25 | 32.84251 | -96.83878 | 478 ft | 8 kts | 219° |
| 2026-04-29 22:25 | 32.84228 | -96.83921 | 484 ft | 4 kts | 263° |
| 2026-04-29 22:25 | 32.84238 | -96.83954 | 488 ft | 4 kts | 307° |
| 2026-04-29 22:25 | 32.84247 | -96.83963 | 485 ft | 0 kts | 316° |
| 2026-04-29 22:26 | 32.84252 | -96.83969 | 485 ft | 6 kts | 316° |
| 2026-04-29 22:26 | 32.84436 | -96.84181 | 489 ft | 74 kts | 315° |
| 2026-04-29 22:26 | 32.84965 | -96.84794 | 488 ft | 135 kts | 315° |
| 2026-04-29 22:26 | 32.85748 | -96.85687 | 641 ft | 166 kts | 321° |
| 2026-04-29 22:27 | 32.86573 | -96.86618 | 1253 ft | 166 kts | 319° |
| 2026-04-29 22:27 | 32.87387 | -96.87575 | 1908 ft | 163 kts | 320° |
| 2026-04-29 22:27 | 32.88187 | -96.88535 | 2397 ft | 170 kts | 319° |
| 2026-04-29 22:27 | 32.89073 | -96.89596 | 2585 ft | 187 kts | 319° |
| 2026-04-29 22:28 | 32.89942 | -96.90798 | 2762 ft | 206 kts | 300° |
| 2026-04-29 22:28 | 32.90123 | -96.92543 | 2904 ft | 227 kts | 259° |
| 2026-04-29 22:28 | 32.89247 | -96.94168 | 3025 ft | 249 kts | 217° |
| 2026-04-29 22:28 | 32.87587 | -96.94846 | 3264 ft | 263 kts | 176° |
| 2026-04-29 22:29 | 32.85860 | -96.94175 | 3784 ft | 267 kts | 142° |
| 2026-04-29 22:29 | 32.84548 | -96.92587 | 4476 ft | 272 kts | 129° |
| 2026-04-29 22:29 | 32.83466 | -96.90699 | 5049 ft | 280 kts | 124° |
| 2026-04-29 22:29 | 32.82431 | -96.88715 | 5696 ft | 284 kts | 124° |
| 2026-04-29 22:30 | 32.81360 | -96.86715 | 6346 ft | 289 kts | 127° |
| 2026-04-29 22:30 | 32.80237 | -96.84744 | 6912 ft | 293 kts | 129° |
| 2026-04-29 22:30 | 32.79039 | -96.82756 | 7519 ft | 296 kts | 130° |
| 2026-04-29 22:30 | 32.77792 | -96.80769 | 8128 ft | 300 kts | 131° |
| 2026-04-29 22:31 | 32.76533 | -96.78810 | 8747 ft | 303 kts | 131° |
| 2026-04-29 22:31 | 32.75233 | -96.76810 | 9349 ft | 307 kts | 131° |
| 2026-04-29 22:31 | 32.73915 | -96.74789 | 9943 ft | 312 kts | 131° |
| 2026-04-29 22:31 | 32.72563 | -96.72716 | 10261 ft | 326 kts | 131° |
| 2026-04-29 22:32 | 32.71126 | -96.70515 | 10391 ft | 347 kts | 131° |
| 2026-04-29 22:32 | 32.69723 | -96.68086 | 10592 ft | 365 kts | 121° |
| 2026-04-29 22:32 | 32.68742 | -96.65313 | 11048 ft | 375 kts | 109° |
| 2026-04-29 22:32 | 32.68261 | -96.62244 | 11575 ft | 382 kts | 95° |
| 2026-04-29 22:33 | 32.68306 | -96.59075 | 12104 ft | 388 kts | 84° |
| 2026-04-29 22:33 | 32.68893 | -96.55932 | 12653 ft | 393 kts | 70° |
| 2026-04-29 22:33 | 32.70053 | -96.52992 | 13193 ft | 395 kts | 56° |
| 2026-04-29 22:33 | 32.71746 | -96.50424 | 13758 ft | 395 kts | 42° |
| 2026-04-29 22:34 | 32.73845 | -96.48300 | 14199 ft | 398 kts | 34° |
| 2026-04-29 22:34 | 32.76032 | -96.46247 | 14716 ft | 402 kts | 34° |
| 2026-04-29 22:34 | 32.78233 | -96.44183 | 15277 ft | 404 kts | 34° |
| 2026-04-29 22:34 | 32.80446 | -96.42104 | 15821 ft | 406 kts | 33° |
| 2026-04-29 22:35 | 32.82670 | -96.40011 | 16375 ft | 408 kts | 33° |
| 2026-04-29 22:35 | 32.84877 | -96.37931 | 16908 ft | 410 kts | 33° |
| 2026-04-29 22:35 | 32.87097 | -96.35780 | 17430 ft | 415 kts | 38° |
| 2026-04-29 22:35 | 32.89076 | -96.33223 | 17938 ft | 423 kts | 49° |
| 2026-04-29 22:36 | 32.90663 | -96.30226 | 18422 ft | 431 kts | 60° |
| 2026-04-29 22:36 | 32.91814 | -96.26958 | 18811 ft | 436 kts | 66° |
| 2026-04-29 22:36 | 32.92909 | -96.23569 | 19186 ft | 440 kts | 66° |
| 2026-04-29 22:36 | 32.94014 | -96.20150 | 19546 ft | 444 kts | 66° |
| 2026-04-29 22:37 | 32.95133 | -96.16692 | 19900 ft | 448 kts | 66° |
| 2026-04-29 22:37 | 32.96260 | -96.13208 | 20259 ft | 452 kts | 67° |
| 2026-04-29 22:37 | 32.97380 | -96.09741 | 20612 ft | 456 kts | 67° |
| 2026-04-29 22:37 | 32.98527 | -96.06185 | 20953 ft | 460 kts | 67° |
| 2026-04-29 22:38 | 32.99680 | -96.02604 | 21296 ft | 464 kts | 67° |
| 2026-04-29 22:38 | 33.00842 | -95.98994 | 21649 ft | 468 kts | 67° |
| 2026-04-29 22:38 | 33.02017 | -95.95351 | 22036 ft | 471 kts | 67° |
| 2026-04-29 22:38 | 33.03177 | -95.91743 | 22466 ft | 473 kts | 67° |
| 2026-04-29 22:39 | 33.04361 | -95.88059 | 22846 ft | 476 kts | 67° |
| 2026-04-29 22:39 | 33.05549 | -95.84351 | 23197 ft | 479 kts | 68° |
| 2026-04-29 22:39 | 33.06743 | -95.80624 | 23540 ft | 482 kts | 68° |
| 2026-04-29 22:39 | 33.07945 | -95.76881 | 23816 ft | 486 kts | 67° |
| 2026-04-29 22:40 | 33.09162 | -95.73096 | 24097 ft | 489 kts | 67° |
| 2026-04-29 22:40 | 33.10368 | -95.69341 | 24377 ft | 492 kts | 67° |
| 2026-04-29 22:40 | 33.11593 | -95.65514 | 24668 ft | 495 kts | 67° |
| 2026-04-29 22:40 | 33.12824 | -95.61663 | 24952 ft | 498 kts | 67° |
| 2026-04-29 22:41 | 33.14065 | -95.57782 | 25222 ft | 501 kts | 67° |
| 2026-04-29 22:41 | 33.15309 | -95.53883 | 25480 ft | 504 kts | 66° |
| 2026-04-29 22:41 | 33.16544 | -95.50003 | 25738 ft | 507 kts | 66° |
| 2026-04-29 22:41 | 33.17801 | -95.46049 | 25991 ft | 510 kts | 66° |
| 2026-04-29 22:42 | 33.19064 | -95.42072 | 26244 ft | 513 kts | 66° |
| 2026-04-29 22:42 | 33.20332 | -95.38078 | 26495 ft | 516 kts | 66° |
| 2026-04-29 22:42 | 33.21604 | -95.34062 | 26743 ft | 519 kts | 66° |
| 2026-04-29 22:42 | 33.22884 | -95.30017 | 26952 ft | 522 kts | 66° |
| 2026-04-29 22:43 | 33.24171 | -95.25947 | 27177 ft | 525 kts | 66° |
| 2026-04-29 22:43 | 33.25461 | -95.21852 | 27422 ft | 528 kts | 66° |
| 2026-04-29 22:43 | 33.26756 | -95.17734 | 27662 ft | 531 kts | 65° |
| 2026-04-29 22:43 | 33.28043 | -95.13642 | 27897 ft | 533 kts | 65° |
| 2026-04-29 22:44 | 33.29357 | -95.09467 | 28131 ft | 536 kts | 65° |
| 2026-04-29 22:44 | 33.30672 | -95.05288 | 28367 ft | 538 kts | 65° |
| 2026-04-29 22:44 | 33.31991 | -95.01085 | 28580 ft | 541 kts | 65° |
| 2026-04-29 22:44 | 33.33312 | -94.96866 | 28794 ft | 543 kts | 65° |
| 2026-04-29 22:45 | 33.34640 | -94.92610 | 29036 ft | 545 kts | 65° |
| 2026-04-29 22:45 | 33.35965 | -94.88367 | 29304 ft | 546 kts | 65° |
| 2026-04-29 22:45 | 33.37298 | -94.84088 | 29536 ft | 548 kts | 65° |
| 2026-04-29 22:45 | 33.38614 | -94.79849 | 29761 ft | 550 kts | 65° |
| 2026-04-29 22:46 | 33.39949 | -94.75553 | 29977 ft | 552 kts | 65° |
| 2026-04-29 22:46 | 33.41292 | -94.71231 | 30248 ft | 552 kts | 65° |
| 2026-04-29 22:46 | 33.42630 | -94.66912 | 30550 ft | 551 kts | 65° |
| 2026-04-29 22:46 | 33.43961 | -94.62605 | 30866 ft | 550 kts | 65° |
| 2026-04-29 22:47 | 33.45268 | -94.58364 | 31187 ft | 548 kts | 65° |
| 2026-04-29 22:47 | 33.46586 | -94.54081 | 31535 ft | 545 kts | 65° |
| 2026-04-29 22:47 | 33.47891 | -94.49833 | 31937 ft | 542 kts | 65° |
| 2026-04-29 22:47 | 33.49192 | -94.45604 | 32347 ft | 539 kts | 65° |
| 2026-04-29 22:48 | 33.50485 | -94.41388 | 32714 ft | 538 kts | 65° |
| 2026-04-29 22:48 | 33.51779 | -94.37176 | 33040 ft | 537 kts | 65° |
| 2026-04-29 22:48 | 33.53052 | -94.33033 | 33361 ft | 535 kts | 65° |
| 2026-04-29 22:48 | 33.54337 | -94.28851 | 33666 ft | 534 kts | 65° |
| 2026-04-29 22:49 | 33.55617 | -94.24656 | 33967 ft | 534 kts | 65° |
| 2026-04-29 22:49 | 33.56882 | -94.20466 | 34226 ft | 533 kts | 65° |
| 2026-04-29 22:49 | 33.58130 | -94.16287 | 34473 ft | 532 kts | 66° |
| 2026-04-29 22:49 | 33.59368 | -94.12101 | 34708 ft | 532 kts | 66° |
| 2026-04-29 22:50 | 33.60603 | -94.07914 | 34924 ft | 532 kts | 66° |
| 2026-04-29 22:50 | 33.63050 | -93.99640 | 35003 ft | 527 kts | 65° |
| 2026-04-29 22:51 | 33.65506 | -93.91350 | 35001 ft | 526 kts | 65° |
| 2026-04-29 22:51 | 33.69174 | -93.78906 | 35007 ft | 528 kts | 64° |
| 2026-04-29 22:52 | 33.71631 | -93.70582 | 34992 ft | 533 kts | 64° |
| 2026-04-29 22:52 | 33.74106 | -93.62154 | 34993 ft | 534 kts | 65° |
| 2026-04-29 22:53 | 33.76546 | -93.53767 | 35001 ft | 535 kts | 65° |
| 2026-04-29 22:53 | 33.79007 | -93.45319 | 35002 ft | 535 kts | 64° |
| 2026-04-29 22:54 | 33.81468 | -93.36871 | 35003 ft | 535 kts | 65° |
| 2026-04-29 22:54 | 33.83912 | -93.28451 | 35005 ft | 535 kts | 65° |
| 2026-04-29 22:55 | 33.86361 | -93.19987 | 35009 ft | 535 kts | 65° |
| 2026-04-29 22:55 | 33.88791 | -93.11511 | 35014 ft | 535 kts | 65° |
| 2026-04-29 22:56 | 33.91221 | -93.03030 | 35000 ft | 536 kts | 65° |
| 2026-04-29 22:56 | 33.93708 | -92.94641 | 35033 ft | 536 kts | 65° |
| 2026-04-29 22:57 | 33.96247 | -92.86174 | 35035 ft | 537 kts | 65° |
| 2026-04-29 22:57 | 33.98777 | -92.77759 | 35027 ft | 537 kts | 65° |
| 2026-04-29 22:58 | 34.02153 | -92.69975 | 35032 ft | 511 kts | 42° |
| 2026-04-29 22:58 | 34.06396 | -92.63034 | 35033 ft | 521 kts | 54° |
| 2026-04-29 22:59 | 34.09493 | -92.55092 | 35036 ft | 526 kts | 60° |
| 2026-04-29 22:59 | 34.12493 | -92.47024 | 35036 ft | 526 kts | 60° |
| 2026-04-29 23:00 | 34.15483 | -92.38997 | 35038 ft | 526 kts | 60° |
| 2026-04-29 23:00 | 34.18475 | -92.30926 | 35035 ft | 526 kts | 60° |
| 2026-04-29 23:01 | 34.21472 | -92.22825 | 35100 ft | 530 kts | 60° |
| 2026-04-29 23:01 | 34.24490 | -92.14652 | 35101 ft | 532 kts | 60° |
| 2026-04-29 23:02 | 34.27474 | -92.06503 | 35103 ft | 532 kts | 61° |
| 2026-04-29 23:02 | 34.30470 | -91.98306 | 35102 ft | 532 kts | 61° |
| 2026-04-29 23:03 | 34.33459 | -91.90159 | 35126 ft | 532 kts | 61° |
| 2026-04-29 23:03 | 34.36468 | -91.81949 | 35133 ft | 533 kts | 61° |
| 2026-04-29 23:04 | 34.38957 | -91.75123 | 35132 ft | 533 kts | 61° |
| 2026-04-29 23:04 | 34.41945 | -91.66883 | 35135 ft | 533 kts | 61° |
| 2026-04-29 23:05 | 34.44906 | -91.58700 | 35136 ft | 533 kts | 61° |
| 2026-04-29 23:05 | 34.47885 | -91.50439 | 35160 ft | 536 kts | 61° |
| 2026-04-29 23:06 | 34.50871 | -91.42175 | 35169 ft | 539 kts | 61° |
| 2026-04-29 23:06 | 34.53878 | -91.33831 | 35173 ft | 539 kts | 61° |
| 2026-04-29 23:07 | 34.56856 | -91.25534 | 35172 ft | 539 kts | 61° |
| 2026-04-29 23:07 | 34.59833 | -91.17177 | 35169 ft | 539 kts | 61° |
| 2026-04-29 23:08 | 34.62813 | -91.08820 | 35169 ft | 538 kts | 61° |
| 2026-04-29 23:08 | 34.65793 | -91.00473 | 35166 ft | 538 kts | 61° |
| 2026-04-29 23:09 | 34.68750 | -90.92168 | 35175 ft | 538 kts | 61° |
| 2026-04-29 23:09 | 34.71715 | -90.83795 | 35165 ft | 538 kts | 62° |
| 2026-04-29 23:10 | 34.74673 | -90.75396 | 35213 ft | 541 kts | 62° |
| 2026-04-29 23:10 | 34.77642 | -90.66964 | 35210 ft | 542 kts | 62° |
| 2026-04-29 23:11 | 34.80585 | -90.58586 | 35207 ft | 542 kts | 62° |
| 2026-04-29 23:11 | 34.83548 | -90.50128 | 35205 ft | 542 kts | 62° |
| 2026-04-29 23:12 | 34.86503 | -90.41672 | 35207 ft | 542 kts | 62° |
| 2026-04-29 23:12 | 34.89430 | -90.33259 | 35211 ft | 541 kts | 62° |
| 2026-04-29 23:13 | 34.92358 | -90.24801 | 35220 ft | 541 kts | 62° |
| 2026-04-29 23:13 | 34.95274 | -90.16399 | 35221 ft | 541 kts | 62° |
| 2026-04-29 23:14 | 34.98205 | -90.07942 | 35220 ft | 541 kts | 62° |
| 2026-04-29 23:14 | 35.01139 | -89.99435 | 35248 ft | 547 kts | 61° |
| 2026-04-29 23:15 | 35.04130 | -89.90897 | 35240 ft | 550 kts | 60° |
| 2026-04-29 23:15 | 35.07227 | -89.82334 | 35233 ft | 550 kts | 60° |
| 2026-04-29 23:16 | 35.10326 | -89.73761 | 35235 ft | 551 kts | 60° |
| 2026-04-29 23:16 | 35.13379 | -89.65217 | 35242 ft | 551 kts | 60° |
| 2026-04-29 23:17 | 35.16433 | -89.56599 | 35246 ft | 551 kts | 60° |
| 2026-04-29 23:17 | 35.19467 | -89.48030 | 35239 ft | 551 kts | 60° |
| 2026-04-29 23:18 | 35.22521 | -89.39414 | 35241 ft | 551 kts | 60° |
| 2026-04-29 23:18 | 35.25552 | -89.30827 | 35290 ft | 554 kts | 60° |
| 2026-04-29 23:19 | 35.28616 | -89.22122 | 35290 ft | 558 kts | 60° |
| 2026-04-29 23:19 | 35.31680 | -89.13392 | 35298 ft | 557 kts | 60° |
| 2026-04-29 23:20 | 35.33697 | -89.07603 | 35294 ft | 557 kts | 60° |